sensor_id;sensor_type;location;lat;lon;timestamp;P1;durP1;ratioP1;P2;durP2;ratioP2
56927;SDS011;60850;52.502;13.426;2022-07-04T00:00:00;3.97;;;2.40;;
56927;SDS011;60850;52.502;13.426;2022-07-04T00:04:54;4.93;;;2.78;;
56927;SDS011;60850;52.502;13.426;2022-07-04T00:07:21;5.78;;;2.83;;
56927;SDS011;60850;52.502;13.426;2022-07-04T00:09:48;4.03;;;2.53;;
56927;SDS011;60850;52.502;13.426;2022-07-04T00:12:14;4.75;;;2.60;;
56927;SDS011;60850;52.502;13.426;2022-07-04T00:14:42;3.70;;;2.70;;
56927;SDS011;60850;52.502;13.426;2022-07-04T00:17:09;3.50;;;2.30;;
56927;SDS011;60850;52.502;13.426;2022-07-04T00:19:36;3.97;;;2.45;;
56927;SDS011;60850;52.502;13.426;2022-07-04T00:22:04;2.83;;;2.30;;
56927;SDS011;60850;52.502;13.426;2022-07-04T00:24:31;4.38;;;2.33;;
56927;SDS011;60850;52.502;13.426;2022-07-04T00:26:58;3.72;;;2.35;;
56927;SDS011;60850;52.502;13.426;2022-07-04T00:29:25;2.50;;;2.30;;
56927;SDS011;60850;52.502;13.426;2022-07-04T00:31:52;2.55;;;2.25;;
56927;SDS011;60850;52.502;13.426;2022-07-04T00:34:18;2.92;;;2.25;;
56927;SDS011;60850;52.502;13.426;2022-07-04T00:36:45;3.83;;;2.30;;
56927;SDS011;60850;52.502;13.426;2022-07-04T00:39:14;3.78;;;2.60;;
56927;SDS011;60850;52.502;13.426;2022-07-04T00:41:40;2.42;;;2.20;;
56927;SDS011;60850;52.502;13.426;2022-07-04T00:44:08;2.67;;;2.20;;
56927;SDS011;60850;52.502;13.426;2022-07-04T00:46:36;3.95;;;2.40;;
56927;SDS011;60850;52.502;13.426;2022-07-04T00:49:04;5.40;;;2.40;;
56927;SDS011;60850;52.502;13.426;2022-07-04T00:51:32;2.92;;;2.38;;
56927;SDS011;60850;52.502;13.426;2022-07-04T00:53:59;2.83;;;2.50;;
56927;SDS011;60850;52.502;13.426;2022-07-04T00:56:27;2.50;;;2.30;;
56927;SDS011;60850;52.502;13.426;2022-07-04T00:58:56;3.40;;;2.10;;
56927;SDS011;60850;52.502;13.426;2022-07-04T01:01:24;4.78;;;2.40;;
56927;SDS011;60850;52.502;13.426;2022-07-04T01:03:51;3.40;;;2.10;;
56927;SDS011;60850;52.502;13.426;2022-07-04T01:06:18;2.58;;;2.00;;
56927;SDS011;60850;52.502;13.426;2022-07-04T01:08:46;2.25;;;2.05;;
56927;SDS011;60850;52.502;13.426;2022-07-04T01:11:13;3.47;;;2.40;;
56927;SDS011;60850;52.502;13.426;2022-07-04T01:13:42;3.75;;;2.45;;
56927;SDS011;60850;52.502;13.426;2022-07-04T01:16:10;4.00;;;2.22;;
56927;SDS011;60850;52.502;13.426;2022-07-04T01:18:37;2.40;;;2.20;;
56927;SDS011;60850;52.502;13.426;2022-07-04T01:21:06;2.40;;;2.20;;
56927;SDS011;60850;52.502;13.426;2022-07-04T01:23:36;3.30;;;2.65;;
56927;SDS011;60850;52.502;13.426;2022-07-04T01:26:04;2.85;;;2.55;;
56927;SDS011;60850;52.502;13.426;2022-07-04T01:28:31;2.67;;;2.45;;
56927;SDS011;60850;52.502;13.426;2022-07-04T01:30:58;4.00;;;2.60;;
56927;SDS011;60850;52.502;13.426;2022-07-04T01:33:25;2.50;;;2.28;;
56927;SDS011;60850;52.502;13.426;2022-07-04T01:35:52;4.53;;;2.90;;
56927;SDS011;60850;52.502;13.426;2022-07-04T01:38:20;3.63;;;2.72;;
56927;SDS011;60850;52.502;13.426;2022-07-04T01:40:47;5.68;;;2.20;;
56927;SDS011;60850;52.502;13.426;2022-07-04T01:43:14;3.13;;;2.60;;
56927;SDS011;60850;52.502;13.426;2022-07-04T01:45:41;3.50;;;2.50;;
56927;SDS011;60850;52.502;13.426;2022-07-04T01:48:08;4.38;;;2.97;;
56927;SDS011;60850;52.502;13.426;2022-07-04T01:50:37;3.88;;;2.15;;
56927;SDS011;60850;52.502;13.426;2022-07-04T01:53:04;4.13;;;2.80;;
56927;SDS011;60850;52.502;13.426;2022-07-04T01:55:33;4.38;;;2.42;;
56927;SDS011;60850;52.502;13.426;2022-07-04T01:58:00;3.28;;;2.53;;
56927;SDS011;60850;52.502;13.426;2022-07-04T02:00:27;2.60;;;2.40;;
56927;SDS011;60850;52.502;13.426;2022-07-04T02:03:12;2.83;;;2.60;;
56927;SDS011;60850;52.502;13.426;2022-07-04T02:05:39;3.58;;;2.60;;
56927;SDS011;60850;52.502;13.426;2022-07-04T02:08:07;3.50;;;2.72;;
56927;SDS011;60850;52.502;13.426;2022-07-04T02:10:35;4.95;;;2.90;;
56927;SDS011;60850;52.502;13.426;2022-07-04T02:13:02;3.47;;;2.67;;
56927;SDS011;60850;52.502;13.426;2022-07-04T02:15:29;5.03;;;3.10;;
56927;SDS011;60850;52.502;13.426;2022-07-04T02:17:57;6.10;;;3.00;;
56927;SDS011;60850;52.502;13.426;2022-07-04T02:20:25;3.55;;;3.25;;
56927;SDS011;60850;52.502;13.426;2022-07-04T02:22:52;4.60;;;3.65;;
56927;SDS011;60850;52.502;13.426;2022-07-04T02:25:20;6.65;;;3.80;;
56927;SDS011;60850;52.502;13.426;2022-07-04T02:27:48;4.65;;;3.70;;
56927;SDS011;60850;52.502;13.426;2022-07-04T02:30:15;4.93;;;3.80;;
56927;SDS011;60850;52.502;13.426;2022-07-04T02:32:42;5.53;;;4.30;;
56927;SDS011;60850;52.502;13.426;2022-07-04T02:35:10;6.32;;;5.03;;
56927;SDS011;60850;52.502;13.426;2022-07-04T02:37:37;5.28;;;4.78;;
56927;SDS011;60850;52.502;13.426;2022-07-04T02:40:05;5.72;;;5.18;;
56927;SDS011;60850;52.502;13.426;2022-07-04T02:42:33;5.72;;;5.10;;
56927;SDS011;60850;52.502;13.426;2022-07-04T02:45:02;5.75;;;5.15;;
56927;SDS011;60850;52.502;13.426;2022-07-04T02:47:29;6.53;;;5.18;;
56927;SDS011;60850;52.502;13.426;2022-07-04T02:49:56;6.00;;;5.40;;
56927;SDS011;60850;52.502;13.426;2022-07-04T02:52:23;5.80;;;5.25;;
56927;SDS011;60850;52.502;13.426;2022-07-04T02:54:50;6.75;;;5.60;;
56927;SDS011;60850;52.502;13.426;2022-07-04T02:57:17;6.40;;;5.80;;
56927;SDS011;60850;52.502;13.426;2022-07-04T02:59:44;8.20;;;5.80;;
56927;SDS011;60850;52.502;13.426;2022-07-04T03:02:13;6.82;;;5.20;;
56927;SDS011;60850;52.502;13.426;2022-07-04T03:04:40;11.43;;;5.63;;
56927;SDS011;60850;52.502;13.426;2022-07-04T03:07:07;8.40;;;5.50;;
56927;SDS011;60850;52.502;13.426;2022-07-04T03:09:34;6.22;;;5.63;;
56927;SDS011;60850;52.502;13.426;2022-07-04T03:12:03;7.20;;;5.82;;
56927;SDS011;60850;52.502;13.426;2022-07-04T03:14:30;6.70;;;6.00;;
56927;SDS011;60850;52.502;13.426;2022-07-04T03:16:57;7.32;;;6.60;;
56927;SDS011;60850;52.502;13.426;2022-07-04T03:19:25;7.55;;;6.30;;
56927;SDS011;60850;52.502;13.426;2022-07-04T03:21:52;7.60;;;6.70;;
56927;SDS011;60850;52.502;13.426;2022-07-04T03:24:19;7.97;;;6.40;;
56927;SDS011;60850;52.502;13.426;2022-07-04T03:26:45;6.75;;;6.07;;
56927;SDS011;60850;52.502;13.426;2022-07-04T03:29:12;6.35;;;5.75;;
56927;SDS011;60850;52.502;13.426;2022-07-04T03:31:39;7.05;;;5.90;;
56927;SDS011;60850;52.502;13.426;2022-07-04T03:34:06;7.10;;;5.28;;
56927;SDS011;60850;52.502;13.426;2022-07-04T03:36:34;6.97;;;6.10;;
56927;SDS011;60850;52.502;13.426;2022-07-04T03:39:01;7.43;;;5.90;;
56927;SDS011;60850;52.502;13.426;2022-07-04T03:41:28;9.00;;;5.60;;
56927;SDS011;60850;52.502;13.426;2022-07-04T03:43:55;7.68;;;5.80;;
56927;SDS011;60850;52.502;13.426;2022-07-04T03:46:22;6.75;;;5.55;;
56927;SDS011;60850;52.502;13.426;2022-07-04T03:48:49;7.18;;;5.60;;
56927;SDS011;60850;52.502;13.426;2022-07-04T03:51:16;6.82;;;5.82;;
56927;SDS011;60850;52.502;13.426;2022-07-04T03:53:44;7.97;;;6.13;;
56927;SDS011;60850;52.502;13.426;2022-07-04T03:56:11;7.22;;;5.55;;
56927;SDS011;60850;52.502;13.426;2022-07-04T03:58:38;7.72;;;5.95;;
56927;SDS011;60850;52.502;13.426;2022-07-04T04:01:04;9.00;;;6.50;;
56927;SDS011;60850;52.502;13.426;2022-07-04T04:03:31;7.47;;;6.00;;
56927;SDS011;60850;52.502;13.426;2022-07-04T04:06:16;8.20;;;5.10;;
56927;SDS011;60850;52.502;13.426;2022-07-04T04:08:42;7.30;;;5.55;;
56927;SDS011;60850;52.502;13.426;2022-07-04T04:11:10;8.20;;;5.78;;
56927;SDS011;60850;52.502;13.426;2022-07-04T04:13:37;8.75;;;5.95;;
56927;SDS011;60850;52.502;13.426;2022-07-04T04:16:04;8.05;;;5.50;;
56927;SDS011;60850;52.502;13.426;2022-07-04T04:18:31;6.80;;;5.45;;
56927;SDS011;60850;52.502;13.426;2022-07-04T04:20:58;7.55;;;5.78;;
56927;SDS011;60850;52.502;13.426;2022-07-04T04:23:24;8.60;;;5.95;;
56927;SDS011;60850;52.502;13.426;2022-07-04T04:25:51;7.47;;;5.97;;
56927;SDS011;60850;52.502;13.426;2022-07-04T04:28:20;7.07;;;5.72;;
56927;SDS011;60850;52.502;13.426;2022-07-04T04:30:46;5.97;;;5.22;;
56927;SDS011;60850;52.502;13.426;2022-07-04T04:33:13;6.35;;;5.78;;
56927;SDS011;60850;52.502;13.426;2022-07-04T04:35:40;6.38;;;5.35;;
56927;SDS011;60850;52.502;13.426;2022-07-04T04:38:07;8.05;;;5.97;;
56927;SDS011;60850;52.502;13.426;2022-07-04T04:40:34;6.90;;;6.20;;
56927;SDS011;60850;52.502;13.426;2022-07-04T04:43:01;7.13;;;6.40;;
56927;SDS011;60850;52.502;13.426;2022-07-04T04:45:29;6.80;;;6.10;;
56927;SDS011;60850;52.502;13.426;2022-07-04T04:47:56;6.68;;;5.85;;
56927;SDS011;60850;52.502;13.426;2022-07-04T04:50:23;8.75;;;6.25;;
56927;SDS011;60850;52.502;13.426;2022-07-04T04:52:50;8.48;;;6.60;;
56927;SDS011;60850;52.502;13.426;2022-07-04T04:55:16;6.45;;;5.85;;
56927;SDS011;60850;52.502;13.426;2022-07-04T04:57:43;6.47;;;5.88;;
56927;SDS011;60850;52.502;13.426;2022-07-04T05:00:11;8.15;;;6.53;;
56927;SDS011;60850;52.502;13.426;2022-07-04T05:02:40;9.25;;;5.80;;
56927;SDS011;60850;52.502;13.426;2022-07-04T05:05:07;8.63;;;5.78;;
56927;SDS011;60850;52.502;13.426;2022-07-04T05:07:34;6.50;;;5.68;;
56927;SDS011;60850;52.502;13.426;2022-07-04T05:10:01;7.53;;;5.50;;
56927;SDS011;60850;52.502;13.426;2022-07-04T05:12:28;5.75;;;5.10;;
56927;SDS011;60850;52.502;13.426;2022-07-04T05:14:56;6.32;;;4.70;;
56927;SDS011;60850;52.502;13.426;2022-07-04T05:17:23;6.07;;;5.47;;
56927;SDS011;60850;52.502;13.426;2022-07-04T05:19:51;5.18;;;4.60;;
56927;SDS011;60850;52.502;13.426;2022-07-04T05:22:18;5.40;;;4.68;;
56927;SDS011;60850;52.502;13.426;2022-07-04T05:24:45;5.22;;;4.72;;
56927;SDS011;60850;52.502;13.426;2022-07-04T05:27:12;5.75;;;4.70;;
56927;SDS011;60850;52.502;13.426;2022-07-04T05:29:39;6.70;;;4.22;;
56927;SDS011;60850;52.502;13.426;2022-07-04T05:32:06;6.28;;;4.10;;
56927;SDS011;60850;52.502;13.426;2022-07-04T05:34:33;6.60;;;3.92;;
56927;SDS011;60850;52.502;13.426;2022-07-04T05:37:02;4.25;;;3.80;;
56927;SDS011;60850;52.502;13.426;2022-07-04T05:39:29;4.85;;;3.97;;
56927;SDS011;60850;52.502;13.426;2022-07-04T05:41:56;4.88;;;3.60;;
56927;SDS011;60850;52.502;13.426;2022-07-04T05:44:23;6.63;;;3.00;;
56927;SDS011;60850;52.502;13.426;2022-07-04T05:46:50;3.63;;;3.28;;
56927;SDS011;60850;52.502;13.426;2022-07-04T05:49:17;4.50;;;3.25;;
56927;SDS011;60850;52.502;13.426;2022-07-04T05:51:43;5.10;;;2.88;;
56927;SDS011;60850;52.502;13.426;2022-07-04T05:54:11;5.30;;;2.45;;
56927;SDS011;60850;52.502;13.426;2022-07-04T05:56:39;2.65;;;2.22;;
56927;SDS011;60850;52.502;13.426;2022-07-04T05:59:07;2.33;;;2.00;;
56927;SDS011;60850;52.502;13.426;2022-07-04T06:01:34;2.67;;;1.98;;
56927;SDS011;60850;52.502;13.426;2022-07-04T06:04:01;5.60;;;2.03;;
56927;SDS011;60850;52.502;13.426;2022-07-04T06:06:29;4.90;;;2.25;;
56927;SDS011;60850;52.502;13.426;2022-07-04T06:08:56;4.95;;;2.17;;
56927;SDS011;60850;52.502;13.426;2022-07-04T06:11:24;3.00;;;1.80;;
56927;SDS011;60850;52.502;13.426;2022-07-04T06:13:51;5.63;;;1.83;;
56927;SDS011;60850;52.502;13.426;2022-07-04T06:16:18;5.18;;;1.70;;
56927;SDS011;60850;52.502;13.426;2022-07-04T06:18:45;2.50;;;1.70;;
56927;SDS011;60850;52.502;13.426;2022-07-04T06:21:13;1.75;;;1.20;;
56927;SDS011;60850;52.502;13.426;2022-07-04T06:23:39;1.83;;;1.40;;
56927;SDS011;60850;52.502;13.426;2022-07-04T06:26:06;2.58;;;1.63;;
56927;SDS011;60850;52.502;13.426;2022-07-04T06:28:35;6.30;;;1.40;;
56927;SDS011;60850;52.502;13.426;2022-07-04T06:31:02;5.07;;;1.48;;
56927;SDS011;60850;52.502;13.426;2022-07-04T06:33:29;5.70;;;1.33;;
56927;SDS011;60850;52.502;13.426;2022-07-04T06:35:56;4.57;;;1.85;;
56927;SDS011;60850;52.502;13.426;2022-07-04T06:38:22;1.75;;;1.10;;
56927;SDS011;60850;52.502;13.426;2022-07-04T06:40:53;3.83;;;0.80;;
56927;SDS011;60850;52.502;13.426;2022-07-04T06:43:20;4.57;;;1.55;;
56927;SDS011;60850;52.502;13.426;2022-07-04T06:45:49;1.60;;;1.00;;
56927;SDS011;60850;52.502;13.426;2022-07-04T06:48:16;7.68;;;1.70;;
56927;SDS011;60850;52.502;13.426;2022-07-04T06:50:44;5.80;;;1.73;;
56927;SDS011;60850;52.502;13.426;2022-07-04T06:53:11;1.70;;;1.20;;
56927;SDS011;60850;52.502;13.426;2022-07-04T06:55:39;3.80;;;0.80;;
56927;SDS011;60850;52.502;13.426;2022-07-04T06:58:08;4.03;;;1.50;;
56927;SDS011;60850;52.502;13.426;2022-07-04T07:00:38;3.10;;;0.93;;
56927;SDS011;60850;52.502;13.426;2022-07-04T07:03:08;1.73;;;1.10;;
56927;SDS011;60850;52.502;13.426;2022-07-04T07:05:35;2.38;;;1.10;;
56927;SDS011;60850;52.502;13.426;2022-07-04T07:08:02;1.88;;;0.75;;
56927;SDS011;60850;52.502;13.426;2022-07-04T07:10:29;2.22;;;0.95;;
56927;SDS011;60850;52.502;13.426;2022-07-04T07:12:57;2.92;;;0.93;;
56927;SDS011;60850;52.502;13.426;2022-07-04T07:15:24;2.10;;;0.63;;
56927;SDS011;60850;52.502;13.426;2022-07-04T07:17:51;3.75;;;0.80;;
56927;SDS011;60850;52.502;13.426;2022-07-04T07:20:19;3.05;;;0.70;;
56927;SDS011;60850;52.502;13.426;2022-07-04T07:22:46;2.25;;;0.60;;
56927;SDS011;60850;52.502;13.426;2022-07-04T07:25:13;2.25;;;0.88;;
56927;SDS011;60850;52.502;13.426;2022-07-04T07:27:40;2.90;;;0.85;;
56927;SDS011;60850;52.502;13.426;2022-07-04T07:30:07;2.58;;;0.70;;
56927;SDS011;60850;52.502;13.426;2022-07-04T07:32:35;2.50;;;0.60;;
56927;SDS011;60850;52.502;13.426;2022-07-04T07:35:01;3.03;;;0.60;;
56927;SDS011;60850;52.502;13.426;2022-07-04T07:37:30;2.22;;;0.63;;
56927;SDS011;60850;52.502;13.426;2022-07-04T07:39:57;1.55;;;0.55;;
56927;SDS011;60850;52.502;13.426;2022-07-04T07:42:24;4.85;;;0.60;;
56927;SDS011;60850;52.502;13.426;2022-07-04T07:44:51;1.55;;;0.60;;
56927;SDS011;60850;52.502;13.426;2022-07-04T07:47:18;5.18;;;0.65;;
56927;SDS011;60850;52.502;13.426;2022-07-04T07:49:45;2.25;;;0.70;;
56927;SDS011;60850;52.502;13.426;2022-07-04T07:52:13;1.85;;;0.82;;
56927;SDS011;60850;52.502;13.426;2022-07-04T07:54:41;4.88;;;1.10;;
56927;SDS011;60850;52.502;13.426;2022-07-04T07:57:08;1.75;;;0.70;;
56927;SDS011;60850;52.502;13.426;2022-07-04T07:59:35;2.58;;;0.70;;
56927;SDS011;60850;52.502;13.426;2022-07-04T08:02:02;3.05;;;0.68;;
56927;SDS011;60850;52.502;13.426;2022-07-04T08:04:29;1.83;;;0.60;;
56927;SDS011;60850;52.502;13.426;2022-07-04T08:07:01;3.92;;;0.60;;
56927;SDS011;60850;52.502;13.426;2022-07-04T08:09:29;7.35;;;1.02;;
56927;SDS011;60850;52.502;13.426;2022-07-04T08:11:57;2.10;;;0.73;;
56927;SDS011;60850;52.502;13.426;2022-07-04T08:14:25;2.20;;;0.70;;
56927;SDS011;60850;52.502;13.426;2022-07-04T08:16:52;2.92;;;0.68;;
56927;SDS011;60850;52.502;13.426;2022-07-04T08:19:19;2.15;;;0.90;;
56927;SDS011;60850;52.502;13.426;2022-07-04T08:21:46;3.25;;;0.95;;
56927;SDS011;60850;52.502;13.426;2022-07-04T08:24:13;1.80;;;0.50;;
56927;SDS011;60850;52.502;13.426;2022-07-04T08:26:40;0.80;;;0.60;;
56927;SDS011;60850;52.502;13.426;2022-07-04T08:29:09;3.33;;;1.33;;
56927;SDS011;60850;52.502;13.426;2022-07-04T08:31:45;2.80;;;1.02;;
56927;SDS011;60850;52.502;13.426;2022-07-04T08:34:12;1.85;;;0.93;;
56927;SDS011;60850;52.502;13.426;2022-07-04T08:36:39;3.53;;;0.90;;
56927;SDS011;60850;52.502;13.426;2022-07-04T08:39:06;3.53;;;0.68;;
56927;SDS011;60850;52.502;13.426;2022-07-04T08:41:34;1.55;;;0.40;;
56927;SDS011;60850;52.502;13.426;2022-07-04T08:44:04;2.47;;;1.00;;
56927;SDS011;60850;52.502;13.426;2022-07-04T08:46:34;6.47;;;1.13;;
56927;SDS011;60850;52.502;13.426;2022-07-04T08:49:02;3.95;;;0.43;;
56927;SDS011;60850;52.502;13.426;2022-07-04T08:51:38;3.15;;;0.32;;
56927;SDS011;60850;52.502;13.426;2022-07-04T08:54:10;5.05;;;0.60;;
56927;SDS011;60850;52.502;13.426;2022-07-04T08:56:51;2.20;;;0.70;;
56927;SDS011;60850;52.502;13.426;2022-07-04T08:59:36;3.72;;;0.70;;
56927;SDS011;60850;52.502;13.426;2022-07-04T09:02:05;1.50;;;0.40;;
56927;SDS011;60850;52.502;13.426;2022-07-04T09:04:33;9.30;;;0.80;;
56927;SDS011;60850;52.502;13.426;2022-07-04T09:06:59;2.67;;;0.80;;
56927;SDS011;60850;52.502;13.426;2022-07-04T09:09:28;3.35;;;0.60;;
56927;SDS011;60850;52.502;13.426;2022-07-04T09:11:55;3.28;;;0.70;;
56927;SDS011;60850;52.502;13.426;2022-07-04T09:14:21;2.63;;;0.80;;
56927;SDS011;60850;52.502;13.426;2022-07-04T09:16:48;1.33;;;0.70;;
56927;SDS011;60850;52.502;13.426;2022-07-04T09:19:20;5.55;;;0.90;;
56927;SDS011;60850;52.502;13.426;2022-07-04T09:21:48;4.97;;;0.63;;
56927;SDS011;60850;52.502;13.426;2022-07-04T09:24:15;3.88;;;0.80;;
56927;SDS011;60850;52.502;13.426;2022-07-04T09:26:44;1.52;;;0.70;;
56927;SDS011;60850;52.502;13.426;2022-07-04T09:29:11;2.17;;;0.88;;
56927;SDS011;60850;52.502;13.426;2022-07-04T09:31:39;1.60;;;0.77;;
56927;SDS011;60850;52.502;13.426;2022-07-04T09:34:06;1.70;;;0.60;;
56927;SDS011;60850;52.502;13.426;2022-07-04T09:36:38;1.75;;;0.60;;
56927;SDS011;60850;52.502;13.426;2022-07-04T09:39:09;6.18;;;0.80;;
56927;SDS011;60850;52.502;13.426;2022-07-04T09:41:55;3.55;;;0.65;;
56927;SDS011;60850;52.502;13.426;2022-07-04T09:44:23;2.63;;;0.70;;
56927;SDS011;60850;52.502;13.426;2022-07-04T09:46:51;3.67;;;0.88;;
56927;SDS011;60850;52.502;13.426;2022-07-04T09:49:18;2.92;;;1.17;;
56927;SDS011;60850;52.502;13.426;2022-07-04T09:51:48;3.97;;;0.70;;
56927;SDS011;60850;52.502;13.426;2022-07-04T09:54:16;4.13;;;0.82;;
56927;SDS011;60850;52.502;13.426;2022-07-04T09:56:47;3.67;;;0.80;;
56927;SDS011;60850;52.502;13.426;2022-07-04T09:59:15;6.30;;;1.15;;
56927;SDS011;60850;52.502;13.426;2022-07-04T10:01:42;2.58;;;0.80;;
56927;SDS011;60850;52.502;13.426;2022-07-04T10:04:09;1.50;;;0.50;;
56927;SDS011;60850;52.502;13.426;2022-07-04T10:06:39;3.75;;;0.80;;
56927;SDS011;60850;52.502;13.426;2022-07-04T10:09:09;2.75;;;0.80;;
56927;SDS011;60850;52.502;13.426;2022-07-04T10:11:37;2.30;;;0.60;;
56927;SDS011;60850;52.502;13.426;2022-07-04T10:14:06;1.85;;;0.77;;
56927;SDS011;60850;52.502;13.426;2022-07-04T10:16:33;1.83;;;1.00;;
56927;SDS011;60850;52.502;13.426;2022-07-04T10:19:01;3.10;;;0.88;;
56927;SDS011;60850;52.502;13.426;2022-07-04T10:21:28;5.00;;;1.33;;
56927;SDS011;60850;52.502;13.426;2022-07-04T10:23:56;2.90;;;1.38;;
56927;SDS011;60850;52.502;13.426;2022-07-04T10:26:24;1.40;;;0.63;;
56927;SDS011;60850;52.502;13.426;2022-07-04T10:28:53;2.17;;;0.73;;
56927;SDS011;60850;52.502;13.426;2022-07-04T10:31:21;1.52;;;0.52;;
56927;SDS011;60850;52.502;13.426;2022-07-04T10:33:50;2.42;;;0.90;;
56927;SDS011;60850;52.502;13.426;2022-07-04T10:36:18;6.30;;;0.90;;
56927;SDS011;60850;52.502;13.426;2022-07-04T10:38:46;3.72;;;1.00;;
56927;SDS011;60850;52.502;13.426;2022-07-04T10:41:15;5.60;;;1.40;;
56927;SDS011;60850;52.502;13.426;2022-07-04T10:46:33;4.63;;;0.80;;
56927;SDS011;60850;52.502;13.426;2022-07-04T10:49:16;2.72;;;0.80;;
56927;SDS011;60850;52.502;13.426;2022-07-04T10:51:45;2.75;;;1.20;;
56927;SDS011;60850;52.502;13.426;2022-07-04T10:54:14;1.60;;;0.80;;
56927;SDS011;60850;52.502;13.426;2022-07-04T10:56:51;4.70;;;1.42;;
56927;SDS011;60850;52.502;13.426;2022-07-04T10:59:22;3.13;;;1.05;;
56927;SDS011;60850;52.502;13.426;2022-07-04T11:04:54;1.85;;;0.95;;
56927;SDS011;60850;52.502;13.426;2022-07-04T11:07:23;2.97;;;0.82;;
56927;SDS011;60850;52.502;13.426;2022-07-04T11:10:23;2.95;;;0.98;;
56927;SDS011;60850;52.502;13.426;2022-07-04T11:13:05;2.17;;;0.65;;
56927;SDS011;60850;52.502;13.426;2022-07-04T11:18:27;5.25;;;1.05;;
56927;SDS011;60850;52.502;13.426;2022-07-04T11:20:55;2.47;;;0.90;;
56927;SDS011;60850;52.502;13.426;2022-07-04T11:23:22;3.35;;;1.10;;
56927;SDS011;60850;52.502;13.426;2022-07-04T11:25:50;2.35;;;0.85;;
56927;SDS011;60850;52.502;13.426;2022-07-04T11:28:20;2.97;;;0.80;;
56927;SDS011;60850;52.502;13.426;2022-07-04T11:30:48;2.28;;;0.80;;
56927;SDS011;60850;52.502;13.426;2022-07-04T11:33:21;1.98;;;1.10;;
56927;SDS011;60850;52.502;13.426;2022-07-04T11:36:02;3.85;;;0.95;;
56927;SDS011;60850;52.502;13.426;2022-07-04T11:38:42;2.15;;;1.00;;
56927;SDS011;60850;52.502;13.426;2022-07-04T11:41:10;1.80;;;0.70;;
56927;SDS011;60850;52.502;13.426;2022-07-04T11:43:55;2.00;;;0.90;;
56927;SDS011;60850;52.502;13.426;2022-07-04T11:46:39;2.40;;;0.80;;
56927;SDS011;60850;52.502;13.426;2022-07-04T11:49:08;2.70;;;0.85;;
56927;SDS011;60850;52.502;13.426;2022-07-04T11:51:40;1.90;;;0.80;;
56927;SDS011;60850;52.502;13.426;2022-07-04T11:54:08;1.97;;;0.90;;
56927;SDS011;60850;52.502;13.426;2022-07-04T11:56:35;2.05;;;1.17;;
56927;SDS011;60850;52.502;13.426;2022-07-04T11:59:08;1.10;;;0.65;;
56927;SDS011;60850;52.502;13.426;2022-07-04T12:01:37;3.85;;;0.90;;
56927;SDS011;60850;52.502;13.426;2022-07-04T12:04:12;3.83;;;0.80;;
56927;SDS011;60850;52.502;13.426;2022-07-04T12:06:43;4.65;;;1.17;;
56927;SDS011;60850;52.502;13.426;2022-07-04T12:09:11;1.88;;;0.70;;
56927;SDS011;60850;52.502;13.426;2022-07-04T12:11:54;1.70;;;0.98;;
56927;SDS011;60850;52.502;13.426;2022-07-04T12:14:23;1.50;;;0.77;;
56927;SDS011;60850;52.502;13.426;2022-07-04T12:19:50;2.33;;;1.08;;
56927;SDS011;60850;52.502;13.426;2022-07-04T12:22:24;3.15;;;1.00;;
56927;SDS011;60850;52.502;13.426;2022-07-04T12:24:56;3.17;;;1.00;;
56927;SDS011;60850;52.502;13.426;2022-07-04T12:27:23;3.33;;;0.75;;
56927;SDS011;60850;52.502;13.426;2022-07-04T12:29:51;2.30;;;0.80;;
56927;SDS011;60850;52.502;13.426;2022-07-04T12:32:19;3.72;;;1.00;;
56927;SDS011;60850;52.502;13.426;2022-07-04T12:34:46;1.20;;;0.80;;
56927;SDS011;60850;52.502;13.426;2022-07-04T12:37:15;3.30;;;0.95;;
56927;SDS011;60850;52.502;13.426;2022-07-04T12:39:43;2.67;;;0.93;;
56927;SDS011;60850;52.502;13.426;2022-07-04T12:42:12;2.00;;;0.60;;
56927;SDS011;60850;52.502;13.426;2022-07-04T12:44:41;1.33;;;0.73;;
56927;SDS011;60850;52.502;13.426;2022-07-04T12:47:10;1.33;;;0.98;;
56927;SDS011;60850;52.502;13.426;2022-07-04T12:49:41;1.00;;;0.80;;
56927;SDS011;60850;52.502;13.426;2022-07-04T12:52:11;1.65;;;0.80;;
56927;SDS011;60850;52.502;13.426;2022-07-04T12:54:40;3.65;;;1.40;;
56927;SDS011;60850;52.502;13.426;2022-07-04T12:57:09;1.77;;;0.75;;
56927;SDS011;60850;52.502;13.426;2022-07-04T12:59:37;1.38;;;0.88;;
56927;SDS011;60850;52.502;13.426;2022-07-04T13:02:05;2.80;;;0.75;;
56927;SDS011;60850;52.502;13.426;2022-07-04T13:04:33;3.28;;;0.60;;
56927;SDS011;60850;52.502;13.426;2022-07-04T13:07:11;2.95;;;0.93;;
56927;SDS011;60850;52.502;13.426;2022-07-04T13:09:42;3.25;;;0.70;;
56927;SDS011;60850;52.502;13.426;2022-07-04T13:12:09;2.17;;;0.70;;
56927;SDS011;60850;52.502;13.426;2022-07-04T13:14:53;1.35;;;0.65;;
56927;SDS011;60850;52.502;13.426;2022-07-04T13:17:21;1.48;;;0.70;;
56927;SDS011;60850;52.502;13.426;2022-07-04T13:19:48;2.83;;;0.65;;
56927;SDS011;60850;52.502;13.426;2022-07-04T13:22:17;3.38;;;0.70;;
56927;SDS011;60850;52.502;13.426;2022-07-04T13:24:46;5.55;;;0.88;;
56927;SDS011;60850;52.502;13.426;2022-07-04T13:27:12;1.92;;;0.80;;
56927;SDS011;60850;52.502;13.426;2022-07-04T13:29:40;3.58;;;0.88;;
56927;SDS011;60850;52.502;13.426;2022-07-04T13:32:06;2.42;;;0.75;;
56927;SDS011;60850;52.502;13.426;2022-07-04T13:34:34;3.50;;;0.70;;
56927;SDS011;60850;52.502;13.426;2022-07-04T13:37:04;3.35;;;0.90;;
56927;SDS011;60850;52.502;13.426;2022-07-04T13:39:31;2.92;;;1.08;;
56927;SDS011;60850;52.502;13.426;2022-07-04T13:42:01;1.63;;;1.08;;
56927;SDS011;60850;52.502;13.426;2022-07-04T13:44:29;1.48;;;0.88;;
56927;SDS011;60850;52.502;13.426;2022-07-04T13:46:55;1.85;;;1.00;;
56927;SDS011;60850;52.502;13.426;2022-07-04T13:49:24;1.10;;;0.75;;
56927;SDS011;60850;52.502;13.426;2022-07-04T13:51:51;3.10;;;1.58;;
56927;SDS011;60850;52.502;13.426;2022-07-04T13:54:18;2.60;;;0.75;;
56927;SDS011;60850;52.502;13.426;2022-07-04T13:56:45;2.78;;;1.42;;
56927;SDS011;60850;52.502;13.426;2022-07-04T13:59:13;2.95;;;0.70;;
56927;SDS011;60850;52.502;13.426;2022-07-04T14:01:40;2.17;;;0.82;;
56927;SDS011;60850;52.502;13.426;2022-07-04T14:04:07;1.73;;;0.70;;
56927;SDS011;60850;52.502;13.426;2022-07-04T14:06:34;4.55;;;1.33;;
56927;SDS011;60850;52.502;13.426;2022-07-04T14:09:01;2.03;;;1.45;;
56927;SDS011;60850;52.502;13.426;2022-07-04T14:11:28;3.72;;;0.88;;
56927;SDS011;60850;52.502;13.426;2022-07-04T14:13:55;2.05;;;0.60;;
56927;SDS011;60850;52.502;13.426;2022-07-04T14:16:24;2.13;;;0.68;;
56927;SDS011;60850;52.502;13.426;2022-07-04T14:18:50;3.72;;;0.70;;
56927;SDS011;60850;52.502;13.426;2022-07-04T14:21:17;2.20;;;1.10;;
56927;SDS011;60850;52.502;13.426;2022-07-04T14:23:44;1.48;;;0.85;;
56927;SDS011;60850;52.502;13.426;2022-07-04T14:26:12;1.15;;;0.57;;
56927;SDS011;60850;52.502;13.426;2022-07-04T14:28:40;1.15;;;0.50;;
56927;SDS011;60850;52.502;13.426;2022-07-04T14:31:09;3.25;;;0.77;;
56927;SDS011;60850;52.502;13.426;2022-07-04T14:33:38;2.55;;;0.75;;
56927;SDS011;60850;52.502;13.426;2022-07-04T14:36:05;2.25;;;1.00;;
56927;SDS011;60850;52.502;13.426;2022-07-04T14:38:34;2.47;;;0.80;;
56927;SDS011;60850;52.502;13.426;2022-07-04T14:41:00;4.10;;;1.10;;
56927;SDS011;60850;52.502;13.426;2022-07-04T14:43:36;5.25;;;0.95;;
56927;SDS011;60850;52.502;13.426;2022-07-04T14:46:04;3.50;;;0.90;;
56927;SDS011;60850;52.502;13.426;2022-07-04T14:48:31;2.22;;;0.73;;
56927;SDS011;60850;52.502;13.426;2022-07-04T14:50:59;3.47;;;0.68;;
56927;SDS011;60850;52.502;13.426;2022-07-04T14:53:27;4.57;;;0.85;;